createdAt,value
2023-03-22T00:01:20.241Z,3.35
2023-03-22T00:03:48.590Z,3.20
2023-03-22T00:06:16.442Z,3.20
2023-03-22T00:08:44.287Z,3.53
2023-03-22T00:11:12.978Z,3.60
2023-03-22T00:13:43.019Z,3.40
2023-03-22T00:16:11.061Z,2.88
2023-03-22T00:18:38.437Z,2.43
2023-03-22T00:21:05.982Z,3.28
2023-03-22T00:23:33.098Z,3.40
2023-03-22T00:26:00.220Z,2.67
2023-03-22T00:28:27.359Z,3.25
2023-03-22T00:30:57.564Z,2.90
2023-03-22T00:33:25.908Z,2.70
2023-03-22T00:35:55.053Z,3.17
2023-03-22T00:38:32.527Z,2.75
2023-03-22T00:41:16.312Z,3.28
2023-03-22T00:43:44.063Z,3.27
2023-03-22T00:46:11.697Z,2.30
2023-03-22T00:48:39.722Z,2.75
2023-03-22T00:51:07.680Z,3.03
2023-03-22T00:53:36.611Z,2.80
2023-03-22T00:56:06.605Z,3.20
2023-03-22T00:58:33.897Z,2.67
2023-03-22T01:01:01.079Z,2.40
2023-03-22T01:03:28.325Z,2.65
2023-03-22T01:05:55.641Z,1.92
2023-03-22T01:08:24.761Z,2.10
2023-03-22T01:10:52.207Z,2.53
2023-03-22T01:13:19.703Z,2.55
2023-03-22T01:15:50.848Z,2.70
2023-03-22T01:18:18.320Z,3.10
2023-03-22T01:20:45.609Z,3.03
2023-03-22T01:23:14.010Z,2.75
2023-03-22T01:25:41.768Z,2.88
2023-03-22T01:28:09.762Z,2.13
2023-03-22T01:30:39.853Z,2.33
2023-03-22T01:33:07.789Z,1.90
2023-03-22T01:35:36.055Z,2.33
2023-03-22T01:38:04.102Z,2.70
2023-03-22T01:40:31.347Z,2.45
2023-03-22T01:42:58.371Z,2.50
2023-03-22T01:45:43.763Z,2.67
2023-03-22T01:48:17.817Z,2.75
2023-03-22T01:50:49.846Z,2.90
2023-03-22T01:53:19.036Z,2.67
2023-03-22T01:55:46.719Z,2.65
2023-03-22T01:58:17.974Z,2.87
2023-03-22T02:00:47.266Z,3.00
2023-03-22T02:03:16.884Z,2.80
2023-03-22T02:05:44.220Z,2.15
2023-03-22T02:08:15.092Z,2.65
2023-03-22T02:10:42.508Z,4.07
2023-03-22T02:13:20.928Z,2.92
2023-03-22T02:16:00.018Z,2.28
2023-03-22T02:18:54.970Z,2.20
2023-03-22T02:21:35.683Z,2.10
2023-03-22T02:24:35.387Z,2.00
2023-03-22T02:27:20.602Z,1.90
2023-03-22T02:29:54.677Z,2.13
2023-03-22T02:32:30.271Z,2.42
2023-03-22T02:35:29.615Z,2.20
2023-03-22T02:38:10.984Z,2.20
2023-03-22T02:41:00.510Z,2.25
2023-03-22T02:43:57.057Z,2.05
2023-03-22T02:46:31.636Z,2.60
2023-03-22T02:49:12.081Z,2.38
2023-03-22T02:51:43.611Z,2.30
2023-03-22T02:54:21.190Z,2.30
2023-03-22T02:57:01.074Z,2.15
2023-03-22T02:59:29.752Z,2.13
2023-03-22T03:01:59.609Z,2.58
2023-03-22T03:04:33.429Z,3.17
2023-03-22T03:07:07.547Z,2.90
2023-03-22T03:09:35.818Z,2.50
2023-03-22T03:12:03.194Z,2.70
2023-03-22T03:14:32.054Z,2.45
2023-03-22T03:17:20.291Z,2.40
2023-03-22T03:20:02.705Z,2.22
2023-03-22T03:22:49.359Z,2.55
2023-03-22T03:25:38.440Z,2.50
2023-03-22T03:28:30.326Z,2.67
2023-03-22T03:31:03.088Z,2.50
2023-03-22T03:33:32.375Z,2.50
2023-03-22T03:36:03.023Z,2.50
2023-03-22T03:38:31.973Z,2.72
2023-03-22T03:41:01.680Z,3.63
2023-03-22T03:43:28.951Z,3.07
2023-03-22T03:45:56.712Z,2.97
2023-03-22T03:48:28.355Z,3.75
2023-03-22T03:50:56.824Z,3.22
2023-03-22T03:53:24.045Z,3.97
2023-03-22T03:55:51.095Z,3.77
2023-03-22T03:58:18.205Z,3.30
2023-03-22T04:00:46.621Z,3.50
2023-03-22T04:03:14.358Z,3.20
2023-03-22T04:05:41.439Z,3.03
2023-03-22T04:08:08.798Z,3.67
2023-03-22T04:10:35.965Z,5.07
2023-03-22T04:13:03.247Z,3.90
2023-03-22T04:15:30.330Z,5.10
2023-03-22T04:17:57.396Z,3.90
2023-03-22T04:20:26.176Z,3.53
2023-03-22T04:22:53.271Z,3.20
2023-03-22T04:25:22.675Z,3.38
2023-03-22T04:27:51.302Z,3.58
2023-03-22T04:30:22.798Z,3.50
2023-03-22T04:32:50.230Z,3.50
2023-03-22T04:35:17.444Z,3.58
2023-03-22T04:37:45.630Z,3.88
2023-03-22T04:40:16.122Z,4.47
2023-03-22T04:42:44.363Z,3.55
2023-03-22T04:45:12.464Z,4.30
2023-03-22T04:47:40.550Z,3.60
2023-03-22T04:50:08.480Z,3.17
2023-03-22T04:52:35.735Z,3.75
2023-03-22T04:55:02.934Z,3.95
2023-03-22T04:57:30.115Z,3.43
2023-03-22T04:59:57.213Z,3.40
2023-03-22T05:02:24.300Z,3.70
2023-03-22T05:04:51.537Z,3.28
2023-03-22T05:07:18.578Z,3.13
2023-03-22T05:09:45.752Z,2.83
2023-03-22T05:12:13.533Z,3.85
2023-03-22T05:14:41.141Z,3.35
2023-03-22T05:17:08.549Z,3.60
2023-03-22T05:19:35.728Z,3.55
2023-03-22T05:22:02.802Z,3.27
2023-03-22T05:24:30.397Z,3.33
2023-03-22T05:27:01.014Z,3.30
2023-03-22T05:29:28.447Z,3.20
2023-03-22T05:31:55.771Z,3.00
2023-03-22T05:34:22.803Z,3.30
2023-03-22T05:36:51.868Z,3.00
2023-03-22T05:39:19.017Z,3.15
2023-03-22T05:41:46.382Z,3.33
2023-03-22T05:44:14.000Z,2.58
2023-03-22T05:46:41.150Z,2.70
2023-03-22T05:49:09.084Z,3.13
2023-03-22T05:51:41.947Z,2.97
2023-03-22T05:54:09.784Z,2.80
2023-03-22T05:56:37.072Z,3.15
2023-03-22T05:59:04.858Z,3.00
2023-03-22T06:01:33.381Z,3.25
2023-03-22T06:04:00.819Z,3.10
2023-03-22T06:06:28.132Z,2.75
2023-03-22T06:09:06.997Z,3.70
2023-03-22T06:11:41.422Z,2.90
2023-03-22T06:14:08.464Z,2.88
2023-03-22T06:16:35.604Z,3.25
2023-03-22T06:19:02.819Z,2.78
2023-03-22T06:21:29.851Z,3.22
2023-03-22T06:23:56.913Z,3.03
2023-03-22T06:26:24.078Z,3.70
2023-03-22T06:28:51.190Z,3.22
2023-03-22T06:31:18.353Z,3.25
2023-03-22T06:33:47.123Z,3.28
2023-03-22T06:36:14.440Z,3.33
2023-03-22T06:38:44.604Z,3.03
2023-03-22T06:41:11.941Z,4.18
2023-03-22T06:43:38.979Z,3.85
2023-03-22T06:46:06.066Z,3.53
2023-03-22T06:48:33.158Z,3.13
2023-03-22T06:51:00.819Z,3.45
2023-03-22T06:53:27.873Z,4.10
2023-03-22T06:55:55.496Z,3.90
2023-03-22T06:58:23.624Z,4.20
2023-03-22T07:00:50.784Z,3.73
2023-03-22T07:03:17.952Z,3.88
2023-03-22T07:05:45.097Z,3.72
2023-03-22T07:08:12.139Z,4.35
2023-03-22T07:10:39.447Z,4.40
2023-03-22T07:13:06.672Z,3.77
2023-03-22T07:15:34.353Z,3.95
2023-03-22T07:18:01.987Z,3.90
2023-03-22T07:20:29.066Z,4.60
2023-03-22T07:22:56.249Z,3.60
2023-03-22T07:25:23.356Z,4.10
2023-03-22T07:27:50.524Z,3.92
2023-03-22T07:30:17.835Z,3.95
2023-03-22T07:32:45.033Z,3.20
2023-03-22T07:35:12.062Z,3.47
2023-03-22T07:37:39.121Z,3.33
2023-03-22T07:40:07.073Z,3.22
2023-03-22T07:42:34.754Z,3.25
2023-03-22T07:45:01.997Z,3.65
2023-03-22T07:47:40.501Z,3.30
2023-03-22T07:50:09.805Z,3.20
2023-03-22T07:52:37.067Z,2.88
2023-03-22T07:55:05.024Z,3.00
2023-03-22T07:57:32.372Z,2.90
2023-03-22T07:59:59.504Z,2.85
2023-03-22T08:02:26.633Z,3.10
2023-03-22T08:04:56.504Z,2.72
2023-03-22T08:07:25.290Z,2.65
2023-03-22T08:09:52.693Z,2.97
2023-03-22T08:12:19.849Z,2.53
2023-03-22T08:14:50.756Z,3.27
2023-03-22T08:17:18.856Z,3.20
2023-03-22T08:19:46.362Z,2.20
2023-03-22T08:22:14.028Z,2.15
2023-03-22T08:24:41.432Z,2.47
2023-03-22T08:27:08.738Z,2.50
2023-03-22T08:29:37.508Z,2.95
2023-03-22T08:32:05.720Z,2.00
2023-03-22T08:34:38.146Z,2.83
2023-03-22T08:37:06.526Z,2.30
2023-03-22T08:39:33.867Z,2.23
2023-03-22T08:42:02.800Z,2.33
2023-03-22T08:44:30.141Z,1.92
2023-03-22T08:46:57.308Z,2.28
2023-03-22T08:49:24.659Z,2.17
2023-03-22T08:51:51.730Z,2.10
2023-03-22T08:54:18.952Z,1.75
2023-03-22T08:56:46.883Z,2.20
2023-03-22T08:59:14.051Z,1.88
2023-03-22T09:01:41.248Z,2.00
2023-03-22T09:04:10.538Z,2.00
2023-03-22T09:06:38.687Z,2.25
2023-03-22T09:09:06.402Z,2.08
2023-03-22T09:11:34.641Z,1.73
2023-03-22T09:14:01.882Z,1.80
2023-03-22T09:16:29.172Z,2.10
2023-03-22T09:18:56.284Z,1.48
2023-03-22T09:21:23.660Z,1.60
2023-03-22T09:23:50.807Z,2.00
2023-03-22T09:26:18.834Z,2.25
2023-03-22T09:28:46.800Z,1.47
2023-03-22T09:31:14.025Z,2.60
2023-03-22T09:33:41.724Z,1.65
2023-03-22T09:36:09.727Z,1.35
2023-03-22T09:38:36.954Z,1.40
2023-03-22T09:41:17.001Z,0.97
2023-03-22T09:43:49.516Z,1.15
2023-03-22T09:46:44.719Z,0.65
2023-03-22T09:49:18.558Z,1.45
2023-03-22T09:51:55.430Z,1.27
2023-03-22T09:54:36.430Z,0.97
2023-03-22T09:57:24.576Z,0.95
2023-03-22T10:00:11.109Z,0.98
2023-03-22T10:02:51.289Z,1.10
2023-03-22T10:05:39.721Z,1.08
2023-03-22T10:08:10.302Z,1.50
2023-03-22T10:10:46.062Z,1.05
2023-03-22T10:13:31.797Z,1.30
2023-03-22T10:16:05.962Z,1.20
2023-03-22T10:18:39.602Z,1.63
2023-03-22T10:21:08.694Z,1.60
2023-03-22T10:23:43.944Z,1.40
2023-03-22T10:26:20.293Z,1.30
2023-03-22T10:28:53.987Z,1.30
2023-03-22T10:31:21.355Z,1.10
2023-03-22T10:33:52.213Z,1.60
2023-03-22T10:36:22.350Z,1.30
2023-03-22T10:38:54.937Z,1.60
2023-03-22T10:41:24.709Z,1.40
2023-03-22T10:43:58.408Z,1.85
2023-03-22T10:46:28.300Z,2.43
2023-03-22T10:48:58.574Z,1.65
2023-03-22T10:51:48.703Z,1.70
2023-03-22T10:54:17.874Z,1.40
2023-03-22T10:56:46.173Z,1.40
2023-03-22T10:59:41.703Z,1.10
2023-03-22T11:02:32.411Z,1.20
2023-03-22T11:05:02.338Z,1.08
2023-03-22T11:07:36.455Z,1.10
2023-03-22T11:10:09.803Z,1.25
2023-03-22T11:12:46.846Z,0.97
2023-03-22T11:15:24.408Z,1.27
2023-03-22T11:17:52.388Z,1.40
2023-03-22T11:20:19.810Z,1.10
2023-03-22T11:22:48.078Z,1.38
2023-03-22T11:25:37.458Z,1.23
2023-03-22T11:28:04.411Z,1.40
2023-03-22T11:30:32.912Z,1.33
2023-03-22T11:33:19.347Z,1.13
2023-03-22T11:35:53.846Z,1.10
2023-03-22T11:38:30.894Z,1.00
2023-03-22T11:41:03.305Z,0.98
2023-03-22T11:43:36.516Z,1.13
2023-03-22T11:46:04.338Z,1.33
2023-03-22T11:48:32.916Z,1.40
2023-03-22T11:51:20.427Z,2.70
2023-03-22T11:53:48.354Z,1.25
2023-03-22T11:56:19.000Z,1.20
2023-03-22T11:59:01.367Z,1.35
2023-03-22T12:02:17.990Z,1.40
2023-03-22T12:04:48.407Z,0.97
2023-03-22T12:07:17.440Z,1.08
2023-03-22T12:09:51.354Z,1.20
2023-03-22T12:12:26.106Z,0.80
2023-03-22T12:15:17.075Z,0.70
2023-03-22T12:18:04.081Z,1.30
2023-03-22T12:20:48.462Z,1.15
2023-03-22T12:23:20.716Z,1.00
2023-03-22T12:25:50.873Z,1.13
2023-03-22T12:28:21.348Z,1.27
2023-03-22T12:30:51.535Z,0.60
2023-03-22T12:33:37.609Z,0.88
2023-03-22T12:36:06.243Z,0.77
2023-03-22T12:38:42.682Z,0.90
2023-03-22T12:41:12.831Z,1.00
2023-03-22T12:43:57.275Z,1.20
2023-03-22T12:46:27.923Z,1.40
2023-03-22T12:49:01.107Z,1.08
2023-03-22T12:51:28.197Z,0.93
2023-03-22T12:53:57.675Z,0.93
2023-03-22T12:56:27.927Z,0.50
2023-03-22T12:59:00.376Z,0.90
2023-03-22T13:01:35.970Z,0.80
2023-03-22T13:04:34.141Z,0.90
2023-03-22T13:07:13.908Z,0.98
2023-03-22T13:09:48.579Z,0.80
2023-03-22T13:12:18.507Z,1.27
2023-03-22T13:15:28.266Z,0.80
2023-03-22T13:17:59.111Z,0.75
2023-03-22T13:20:28.851Z,0.68
2023-03-22T13:22:55.951Z,0.70
2023-03-22T13:25:34.383Z,0.90
2023-03-22T13:28:23.005Z,0.80
2023-03-22T13:30:55.095Z,0.73
2023-03-22T13:33:34.804Z,0.52
2023-03-22T13:36:23.945Z,0.70
2023-03-22T13:38:56.280Z,0.63
2023-03-22T13:41:36.171Z,0.50
2023-03-22T13:44:20.371Z,0.45
2023-03-22T13:46:52.495Z,0.82
2023-03-22T13:49:40.317Z,0.60
2023-03-22T13:52:08.224Z,0.60
2023-03-22T13:54:42.670Z,0.80
2023-03-22T13:57:20.806Z,0.50
2023-03-22T14:00:20.420Z,0.63
2023-03-22T14:02:48.833Z,0.43
2023-03-22T14:05:18.440Z,0.63
2023-03-22T14:07:56.959Z,0.60
2023-03-22T14:10:53.476Z,0.60
2023-03-22T14:13:31.903Z,0.63
2023-03-22T14:16:37.766Z,0.67
2023-03-22T14:19:09.021Z,0.50
2023-03-22T14:21:42.214Z,0.80
